createdAt,value
2023-01-13T00:03:33.569Z,0.68
2023-01-13T00:07:35.388Z,0.43
2023-01-13T00:11:37.144Z,0.50
2023-01-13T00:15:38.849Z,0.57
2023-01-13T00:19:40.541Z,0.70
2023-01-13T00:23:43.062Z,0.43
2023-01-13T00:27:44.790Z,0.70
2023-01-13T00:31:46.528Z,0.50
2023-01-13T00:36:02.173Z,0.60
2023-01-13T00:40:05.009Z,0.90
2023-01-13T00:48:08.571Z,0.57
2023-01-13T00:52:11.030Z,0.60
2023-01-13T00:56:27.329Z,0.65
2023-01-13T01:00:36.289Z,0.40
2023-01-13T01:04:38.194Z,0.60
2023-01-13T01:08:40.618Z,0.55
2023-01-13T01:12:42.320Z,0.70
2023-01-13T01:16:44.759Z,0.60
2023-01-13T01:20:46.449Z,0.60
2023-01-13T01:24:48.243Z,0.57
2023-01-13T01:28:50.405Z,0.70
2023-01-13T01:32:52.168Z,0.60
2023-01-13T01:36:53.873Z,0.60
2023-01-13T01:40:56.114Z,0.43
2023-01-13T01:45:24.897Z,1.20
2023-01-13T01:49:32.669Z,0.70
2023-01-13T01:53:34.420Z,0.68
2023-01-13T01:57:39.037Z,0.57
2023-01-13T02:01:42.534Z,0.70
2023-01-13T02:05:44.426Z,0.82
2023-01-13T02:09:46.386Z,0.50
2023-01-13T02:13:48.214Z,0.50
2023-01-13T02:18:38.129Z,0.60
2023-01-13T02:23:06.489Z,0.60
2023-01-13T02:27:20.276Z,0.60
2023-01-13T02:31:41.445Z,0.65
2023-01-13T02:35:59.834Z,0.52
2023-01-13T02:40:13.382Z,0.47
2023-01-13T02:44:20.812Z,0.45
2023-01-13T02:48:24.642Z,0.45
2023-01-13T02:52:33.372Z,0.60
2023-01-13T02:56:40.289Z,0.50
2023-01-13T03:00:43.384Z,0.80
2023-01-13T03:04:56.746Z,0.40
2023-01-13T03:09:15.184Z,0.52
2023-01-13T03:13:26.841Z,0.43
2023-01-13T03:17:54.324Z,0.60
2023-01-13T03:22:22.379Z,0.50
2023-01-13T03:26:32.672Z,0.50
2023-01-13T03:30:48.533Z,0.52
2023-01-13T03:34:57.154Z,0.50
2023-01-13T03:39:05.052Z,0.98
2023-01-13T03:43:33.407Z,0.75
2023-01-13T03:47:41.356Z,0.85
2023-01-13T03:51:47.988Z,0.50
2023-01-13T03:55:58.572Z,0.80
2023-01-13T04:00:04.178Z,0.65
2023-01-13T04:04:21.260Z,0.50
2023-01-13T04:08:27.084Z,0.40
2023-01-13T04:13:04.073Z,0.60
2023-01-13T04:17:05.811Z,0.50
2023-01-13T04:21:08.152Z,0.60
2023-01-13T04:25:10.258Z,0.60
2023-01-13T04:29:13.068Z,0.77
2023-01-13T04:33:17.143Z,0.68
2023-01-13T04:37:18.878Z,0.43
2023-01-13T04:41:20.627Z,0.38
2023-01-13T04:45:22.311Z,0.60
2023-01-13T04:49:23.869Z,0.60
2023-01-13T04:53:25.461Z,0.55
2023-01-13T04:57:27.119Z,0.63
2023-01-13T05:01:28.824Z,0.68
2023-01-13T05:05:30.676Z,0.70
2023-01-13T05:09:32.225Z,0.40
2023-01-13T05:13:52.457Z,0.65
2023-01-13T05:17:54.126Z,0.40
2023-01-13T05:22:14.834Z,0.40
2023-01-13T05:26:16.395Z,0.60
2023-01-13T05:30:19.146Z,0.90
2023-01-13T05:34:25.426Z,0.50
2023-01-13T05:38:27.170Z,0.47
2023-01-13T05:42:51.042Z,0.52
2023-01-13T05:46:52.665Z,0.70
2023-01-13T05:51:04.517Z,0.93
2023-01-13T05:55:06.882Z,0.80
2023-01-13T05:59:08.545Z,0.60
2023-01-13T06:03:10.767Z,0.98
2023-01-13T06:07:12.681Z,1.58
2023-01-13T06:11:14.283Z,0.85
2023-01-13T06:15:15.854Z,0.60
2023-01-13T06:19:17.646Z,0.40
2023-01-13T06:23:19.265Z,0.35
2023-01-13T06:27:22.023Z,0.38
2023-01-13T06:31:24.762Z,0.40
2023-01-13T06:35:32.398Z,0.30
2023-01-13T06:39:36.001Z,0.45
2023-01-13T06:43:39.024Z,0.30
2023-01-13T06:47:42.141Z,0.30
2023-01-13T06:51:45.153Z,0.40
2023-01-13T06:55:50.552Z,0.28
2023-01-13T06:59:53.580Z,0.30
2023-01-13T07:03:55.139Z,0.50
2023-01-13T07:07:59.212Z,0.50
2023-01-13T07:12:00.816Z,0.65
2023-01-13T07:16:08.157Z,0.60
2023-01-13T07:20:11.861Z,1.30
2023-01-13T07:24:17.999Z,0.50
2023-01-13T07:28:20.438Z,0.60
2023-01-13T07:32:22.446Z,1.00
2023-01-13T07:36:23.983Z,1.20
2023-01-13T07:40:26.131Z,0.70
2023-01-13T07:48:34.491Z,0.90
2023-01-13T07:52:37.343Z,0.82
2023-01-13T08:00:40.448Z,0.50
2023-01-13T08:04:45.447Z,0.60
2023-01-13T08:08:47.157Z,0.77
2023-01-13T08:13:11.218Z,0.60
2023-01-13T08:17:13.169Z,0.45
2023-01-13T08:21:16.121Z,0.55
2023-01-13T08:25:18.021Z,0.40
2023-01-13T08:29:19.712Z,0.65
2023-01-13T08:33:23.602Z,0.68
2023-01-13T08:37:28.573Z,0.47
2023-01-13T08:41:50.388Z,0.50
2023-01-13T08:46:00.592Z,0.60
2023-01-13T08:50:06.242Z,0.77
2023-01-13T08:54:08.560Z,0.93
2023-01-13T08:58:15.559Z,0.80
2023-01-13T09:02:23.403Z,0.60
2023-01-13T09:06:25.312Z,0.63
2023-01-13T09:10:34.117Z,0.80
2023-01-13T09:14:38.011Z,0.90
2023-01-13T09:18:41.727Z,0.57
2023-01-13T09:26:46.279Z,0.80
2023-01-13T09:30:48.071Z,0.73
2023-01-13T09:35:02.333Z,0.80
2023-01-13T09:39:04.398Z,0.70
2023-01-13T09:43:39.100Z,0.80
2023-01-13T09:47:48.635Z,0.70
2023-01-13T09:52:10.556Z,0.93
2023-01-13T10:00:28.901Z,0.77
2023-01-13T10:04:30.745Z,0.90
2023-01-13T10:08:39.030Z,1.13
2023-01-13T10:12:59.894Z,0.75
2023-01-13T10:17:04.382Z,0.93
2023-01-13T10:21:26.937Z,1.02
2023-01-13T10:25:42.229Z,0.70
2023-01-13T10:29:43.883Z,0.90
2023-01-13T10:33:47.065Z,1.15
2023-01-13T10:37:57.523Z,1.08
2023-01-13T10:42:04.232Z,0.82
2023-01-13T10:46:10.994Z,1.63
2023-01-13T10:50:14.411Z,1.00
2023-01-13T10:54:24.116Z,1.40
2023-01-13T10:58:27.812Z,0.90
2023-01-13T11:02:33.121Z,0.90
2023-01-13T11:06:36.077Z,0.80
2023-01-13T11:10:47.033Z,0.98
2023-01-13T11:14:50.923Z,1.02
2023-01-13T11:19:13.013Z,1.05
2023-01-13T11:23:22.861Z,0.90
2023-01-13T11:27:43.563Z,1.25
2023-01-13T11:31:58.845Z,1.17
2023-01-13T11:36:21.400Z,0.90
2023-01-13T11:40:35.050Z,1.08
2023-01-13T11:44:50.054Z,1.55
2023-01-13T11:48:56.266Z,1.05
2023-01-13T11:53:17.048Z,1.20
2023-01-13T11:57:39.059Z,1.30
2023-01-13T12:02:11.101Z,1.15
2023-01-13T12:06:39.081Z,0.85
2023-01-13T12:11:07.058Z,1.63
2023-01-13T12:15:21.123Z,1.58
2023-01-13T12:19:29.822Z,2.03
2023-01-13T12:23:46.548Z,1.10
2023-01-13T12:27:56.216Z,1.10
2023-01-13T12:32:03.123Z,0.93
2023-01-13T12:36:25.066Z,1.25
2023-01-13T12:41:09.909Z,1.30
2023-01-13T12:45:11.471Z,1.80
2023-01-13T12:49:26.067Z,1.10
2023-01-13T12:53:36.257Z,1.15
2023-01-13T12:57:39.628Z,1.38
2023-01-13T13:01:44.308Z,1.17
2023-01-13T13:06:08.037Z,1.30
2023-01-13T13:10:19.023Z,1.67
2023-01-13T13:14:37.003Z,1.45
2023-01-13T13:18:38.766Z,1.63
2023-01-13T13:22:45.065Z,1.50
2023-01-13T13:26:46.943Z,1.42
2023-01-13T13:31:11.895Z,1.40
2023-01-13T13:35:21.818Z,1.52
2023-01-13T13:39:47.039Z,1.30
2023-01-13T13:44:07.600Z,1.50
2023-01-13T13:48:25.048Z,1.50
2023-01-13T13:52:40.022Z,1.08
2023-01-13T13:56:45.624Z,1.75
2023-01-13T14:00:49.311Z,0.80
2023-01-13T14:04:50.911Z,1.73
2023-01-13T14:08:53.870Z,1.52
2023-01-13T14:12:56.983Z,2.00
2023-01-13T14:16:58.813Z,1.20
2023-01-13T14:21:18.842Z,1.10
2023-01-13T14:25:46.859Z,1.55
2023-01-13T14:30:00.796Z,1.25
2023-01-13T14:34:31.084Z,2.42
2023-01-13T14:38:27.355Z,1.55
2023-01-13T14:42:29.822Z,1.10
2023-01-13T14:46:43.176Z,1.63
2023-01-13T14:50:46.783Z,1.00
2023-01-13T14:54:54.083Z,1.10
2023-01-13T14:58:55.953Z,1.23
2023-01-13T15:02:58.203Z,1.10
2023-01-13T15:07:01.951Z,0.82
2023-01-13T15:11:18.904Z,1.42
2023-01-13T15:15:25.942Z,1.33
2023-01-13T15:19:27.468Z,1.27
2023-01-13T15:23:29.935Z,1.27
2023-01-13T15:27:31.499Z,1.30
2023-01-13T15:31:33.081Z,1.50
2023-01-13T15:35:37.972Z,4.13
2023-01-13T15:39:39.764Z,2.55
2023-01-13T15:44:01.948Z,2.97
2023-01-13T15:48:03.936Z,2.55
2023-01-13T15:52:20.022Z,1.67
2023-01-13T15:56:26.620Z,1.48
2023-01-13T16:00:34.165Z,2.03
2023-01-13T16:04:35.843Z,2.17
2023-01-13T16:08:38.244Z,1.90
2023-01-13T16:12:40.278Z,3.53
2023-01-13T16:16:41.876Z,4.18
2023-01-13T16:20:44.063Z,2.40
2023-01-13T16:24:46.037Z,3.37
2023-01-13T16:28:52.983Z,3.22
2023-01-13T16:32:57.140Z,2.28
2023-01-13T16:36:58.696Z,2.42
2023-01-13T16:41:00.345Z,2.47
2023-01-13T16:45:08.394Z,2.05
2023-01-13T16:49:13.071Z,2.10
2023-01-13T16:53:14.696Z,3.17
2023-01-13T16:57:17.331Z,2.20
2023-01-13T17:01:22.274Z,3.33
2023-01-13T17:05:23.902Z,2.67
2023-01-13T17:09:27.432Z,1.85
2023-01-13T17:13:32.264Z,3.70
2023-01-13T17:17:33.903Z,2.85
2023-01-13T17:21:35.481Z,1.65
2023-01-13T17:25:37.336Z,2.25
2023-01-13T17:29:39.057Z,1.98
2023-01-13T17:33:40.692Z,2.10
2023-01-13T17:37:42.359Z,1.77
2023-01-13T17:41:45.740Z,2.05
2023-01-13T17:45:48.336Z,3.50
2023-01-13T17:49:49.857Z,4.10
2023-01-13T17:53:53.912Z,2.35
2023-01-13T18:01:57.331Z,2.25
2023-01-13T18:06:03.959Z,2.50
2023-01-13T18:10:06.220Z,2.00
2023-01-13T18:14:09.494Z,4.50
2023-01-13T18:18:11.055Z,2.58
2023-01-13T18:22:35.632Z,2.08
2023-01-13T18:26:55.760Z,2.70
2023-01-13T18:30:57.583Z,2.05
2023-01-13T18:35:09.120Z,1.85
2023-01-13T18:39:11.622Z,1.75
2023-01-13T18:43:17.008Z,2.25
2023-01-13T18:47:19.516Z,1.85
2023-01-13T18:51:21.082Z,1.80
2023-01-13T18:55:24.544Z,3.22
2023-01-13T18:59:28.190Z,2.35
2023-01-13T19:03:31.218Z,2.92
2023-01-13T19:07:35.613Z,1.75
2023-01-13T19:11:37.540Z,6.05
2023-01-13T19:15:39.135Z,5.20
2023-01-13T19:19:43.923Z,2.97
2023-01-13T19:23:45.904Z,2.13
2023-01-13T19:27:47.479Z,2.42
2023-01-13T19:31:49.264Z,2.70
2023-01-13T19:36:07.362Z,3.00
2023-01-13T19:40:10.409Z,4.50
2023-01-13T19:44:31.122Z,7.28
2023-01-13T19:48:32.947Z,4.00
2023-01-13T19:52:35.168Z,2.55
2023-01-13T19:56:37.929Z,2.80
2023-01-13T20:00:47.058Z,5.07
2023-01-13T20:04:49.090Z,3.17
2023-01-13T20:08:51.105Z,2.72
2023-01-13T20:12:52.983Z,3.72
2023-01-13T20:16:54.807Z,2.05
2023-01-13T20:20:57.967Z,1.75
2023-01-13T20:24:59.506Z,2.13
2023-01-13T20:29:01.097Z,1.98
2023-01-13T20:33:03.731Z,1.63
2023-01-13T20:37:05.492Z,2.13
2023-01-13T20:41:25.976Z,1.95
2023-01-13T20:45:28.945Z,1.80
2023-01-13T20:49:31.624Z,1.95
2023-01-13T20:53:33.201Z,2.45
2023-01-13T20:57:35.135Z,4.53
2023-01-13T21:01:37.845Z,2.63
2023-01-13T21:05:39.588Z,2.85
2023-01-13T21:09:43.204Z,2.88
2023-01-13T21:14:04.054Z,2.88
2023-01-13T21:18:24.578Z,6.20
2023-01-13T21:22:26.798Z,2.92
2023-01-13T21:26:28.463Z,2.40
2023-01-13T21:30:30.122Z,2.67
2023-01-13T21:34:33.993Z,2.63
2023-01-13T21:38:36.181Z,2.45
2023-01-13T21:42:56.562Z,1.95
2023-01-13T21:47:19.891Z,2.80
2023-01-13T21:51:21.525Z,2.03
2023-01-13T21:55:28.609Z,2.58
2023-01-13T21:59:30.636Z,3.22
2023-01-13T22:03:52.271Z,2.20
2023-01-13T22:07:53.864Z,2.67
2023-01-13T22:11:55.448Z,1.88
2023-01-13T22:16:04.526Z,2.05
2023-01-13T22:20:06.576Z,2.58
2023-01-13T22:24:08.523Z,2.10
2023-01-13T22:28:14.586Z,2.03
2023-01-13T22:32:17.246Z,2.00
2023-01-13T22:36:19.904Z,2.38
2023-01-13T22:40:21.454Z,1.80
2023-01-13T22:44:23.258Z,1.75
2023-01-13T22:48:24.903Z,1.85
2023-01-13T22:52:28.543Z,1.90
2023-01-13T22:56:30.231Z,2.47
2023-01-13T23:00:32.339Z,2.33
2023-01-13T23:04:34.072Z,1.93
2023-01-13T23:08:37.913Z,2.30
2023-01-13T23:12:41.285Z,1.98
2023-01-13T23:16:42.931Z,1.65
2023-01-13T23:20:44.507Z,1.73
2023-01-13T23:24:46.120Z,1.55
2023-01-13T23:28:47.724Z,2.25
2023-01-13T23:32:49.263Z,2.85
2023-01-13T23:36:50.863Z,1.88
2023-01-13T23:40:52.651Z,2.20
2023-01-13T23:44:54.190Z,2.63
2023-01-13T23:48:55.962Z,1.88
2023-01-13T23:52:57.630Z,1.60
2023-01-13T23:57:00.329Z,2.33
